createdAt,value
2023-01-30T00:01:39.806Z,89.69
2023-01-30T00:04:08.771Z,90.30
2023-01-30T00:06:35.313Z,89.99
2023-01-30T00:09:02.013Z,90.58
2023-01-30T00:11:33.405Z,89.92
2023-01-30T00:14:01.778Z,90.31
2023-01-30T00:16:28.355Z,90.23
2023-01-30T00:18:57.762Z,89.95
2023-01-30T00:21:27.041Z,89.95
2023-01-30T00:23:53.584Z,89.47
2023-01-30T00:26:24.856Z,90.46
2023-01-30T00:28:55.466Z,90.00
2023-01-30T00:31:33.791Z,90.41
2023-01-30T00:34:03.649Z,90.45
2023-01-30T00:36:33.613Z,91.07
2023-01-30T00:39:00.359Z,90.86
2023-01-30T00:41:52.730Z,91.90
2023-01-30T00:44:38.132Z,91.84
2023-01-30T00:47:10.770Z,92.43
2023-01-30T00:49:42.422Z,92.78
2023-01-30T00:52:14.946Z,92.62
2023-01-30T00:54:42.844Z,94.05
2023-01-30T00:57:09.933Z,94.25
2023-01-30T00:59:39.055Z,94.16
2023-01-30T01:02:05.860Z,94.61
2023-01-30T01:04:44.374Z,94.58
2023-01-30T01:07:16.675Z,94.64
2023-01-30T01:09:50.545Z,94.33
2023-01-30T01:12:35.415Z,94.05
2023-01-30T01:15:04.442Z,94.08
2023-01-30T01:17:41.309Z,94.11
2023-01-30T01:20:20.434Z,94.78
2023-01-30T01:22:54.421Z,94.79
2023-01-30T01:25:24.586Z,94.38
2023-01-30T01:27:52.707Z,94.91
2023-01-30T01:30:22.414Z,95.35
2023-01-30T01:32:48.975Z,95.68
2023-01-30T01:35:20.175Z,95.37
2023-01-30T01:37:56.183Z,95.25
2023-01-30T01:40:51.922Z,95.21
2023-01-30T01:43:32.168Z,95.26
2023-01-30T01:46:08.858Z,95.39
2023-01-30T01:48:44.385Z,95.45
2023-01-30T01:51:26.957Z,94.94
2023-01-30T01:54:13.278Z,96.29
2023-01-30T01:56:56.693Z,96.09
2023-01-30T01:59:59.798Z,95.90
2023-01-30T02:02:27.121Z,96.52
2023-01-30T02:05:07.593Z,96.09
2023-01-30T02:08:34.635Z,96.12
2023-01-30T02:11:39.080Z,96.20
2023-01-30T02:16:51.278Z,96.96
2023-01-30T02:19:56.912Z,97.04
2023-01-30T02:23:14.611Z,96.81
2023-01-30T02:26:12.682Z,96.57
2023-01-30T02:29:35.749Z,95.52
2023-01-30T02:32:47.238Z,95.31
2023-01-30T02:35:36.112Z,96.01
2023-01-30T02:39:14.632Z,95.99
2023-01-30T02:42:35.565Z,96.73
2023-01-30T02:50:04.785Z,99.05
2023-01-30T02:58:36.416Z,100.00
2023-01-30T03:24:08.268Z,100.00
2023-01-30T03:52:33.200Z,100.00
2023-01-30T03:55:36.537Z,100.00
2023-01-30T03:58:16.612Z,100.00
2023-01-30T04:19:33.627Z,100.00
2023-01-30T04:22:13.687Z,100.00
2023-01-30T04:25:02.213Z,100.00
2023-01-30T04:27:43.648Z,100.00
2023-01-30T04:30:35.256Z,100.00
2023-01-30T04:34:05.941Z,100.00
2023-01-30T04:37:11.560Z,100.00
2023-01-30T04:40:12.917Z,100.00
2023-01-30T04:43:21.183Z,100.00
2023-01-30T04:56:02.769Z,100.00
2023-01-30T04:58:32.179Z,100.00
2023-01-30T05:01:38.532Z,100.00
2023-01-30T05:04:55.922Z,100.00
2023-01-30T05:07:26.855Z,100.00
2023-01-30T05:10:27.739Z,100.00
2023-01-30T05:13:19.949Z,100.00
2023-01-30T05:24:09.168Z,100.00
2023-01-30T07:07:09.937Z,90.44
2023-01-30T07:23:38.338Z,87.33
2023-01-30T07:28:59.676Z,86.92
2023-01-30T07:31:45.772Z,87.42
2023-01-30T07:34:47.567Z,87.23
2023-01-30T07:44:20.478Z,86.32
2023-01-30T07:46:55.707Z,85.18
2023-01-30T07:49:25.557Z,86.58
2023-01-30T07:51:52.656Z,86.10
2023-01-30T07:56:56.848Z,86.34
2023-01-30T08:18:10.178Z,82.29
2023-01-30T08:20:37.117Z,82.47
2023-01-30T08:23:03.928Z,83.49
2023-01-30T08:25:30.636Z,81.73
2023-01-30T08:28:00.185Z,80.86
2023-01-30T08:30:27.739Z,80.67
2023-01-30T08:33:17.750Z,80.70
2023-01-30T08:36:40.959Z,79.82
2023-01-30T08:39:19.602Z,81.23
2023-01-30T08:41:46.005Z,81.84
2023-01-30T08:44:12.920Z,80.55
2023-01-30T08:46:39.907Z,80.82
2023-01-30T08:49:06.562Z,80.43
2023-01-30T08:51:33.160Z,80.16
2023-01-30T08:53:59.645Z,80.53
2023-01-30T08:56:26.102Z,79.02
2023-01-30T08:58:52.621Z,79.76
2023-01-30T09:01:19.096Z,79.73
2023-01-30T09:03:45.566Z,79.25
2023-01-30T09:06:12.002Z,79.53
2023-01-30T09:08:38.382Z,78.81
2023-01-30T09:11:06.039Z,78.25
2023-01-30T09:13:34.532Z,77.61
2023-01-30T09:16:00.912Z,79.10
2023-01-30T09:18:27.301Z,77.99
2023-01-30T09:21:02.539Z,78.51
2023-01-30T09:23:28.996Z,78.42
2023-01-30T09:25:55.463Z,78.14
2023-01-30T09:28:21.998Z,78.12
2023-01-30T09:30:48.448Z,77.92
2023-01-30T09:33:16.371Z,76.24
2023-01-30T09:35:42.771Z,75.58
2023-01-30T09:38:09.669Z,75.68
2023-01-30T09:40:42.526Z,76.62
2023-01-30T09:43:51.652Z,75.07
2023-01-30T09:46:45.563Z,75.80
2023-01-30T09:49:27.186Z,76.23
2023-01-30T09:52:10.255Z,75.55
2023-01-30T09:54:40.143Z,74.83
2023-01-30T09:57:21.334Z,75.10
2023-01-30T10:00:17.197Z,75.59
2023-01-30T10:02:50.046Z,74.80
2023-01-30T10:05:16.600Z,74.68
2023-01-30T10:08:02.748Z,73.52
2023-01-30T10:10:51.148Z,74.05
2023-01-30T10:13:48.142Z,74.23
2023-01-30T10:16:19.555Z,73.76
2023-01-30T10:19:18.121Z,74.29
2023-01-30T10:22:00.704Z,74.63
2023-01-30T10:24:38.097Z,74.70
2023-01-30T10:27:13.592Z,74.25
2023-01-30T10:29:44.707Z,73.71
2023-01-30T10:32:41.674Z,72.78
2023-01-30T10:35:27.466Z,73.13
2023-01-30T10:40:58.275Z,71.94
2023-01-30T10:43:40.906Z,72.36
2023-01-30T10:46:10.382Z,72.36
2023-01-30T10:48:58.772Z,72.17
2023-01-30T10:51:53.392Z,70.91
2023-01-30T10:54:37.960Z,71.68
2023-01-30T10:57:36.910Z,72.01
2023-01-30T11:00:20.007Z,71.65
2023-01-30T11:03:04.884Z,71.73
2023-01-30T11:05:44.869Z,71.38
2023-01-30T11:08:23.816Z,71.01
2023-01-30T11:10:54.514Z,70.80
2023-01-30T11:13:27.603Z,70.86
2023-01-30T11:15:57.880Z,70.58
2023-01-30T11:19:18.098Z,70.08
2023-01-30T11:21:43.506Z,69.70
2023-01-30T11:27:00.782Z,69.08
2023-01-30T11:29:35.276Z,67.63
2023-01-30T11:32:05.336Z,68.28
2023-01-30T11:34:32.453Z,68.04
2023-01-30T11:37:23.588Z,67.04
2023-01-30T11:39:53.319Z,67.81
2023-01-30T11:42:30.408Z,67.33
2023-01-30T11:45:14.855Z,67.56
2023-01-30T11:48:05.419Z,65.78
2023-01-30T11:50:43.755Z,66.27
2023-01-30T11:53:31.563Z,68.28
2023-01-30T11:56:06.445Z,70.08
2023-01-30T11:58:38.797Z,70.53
2023-01-30T12:01:05.503Z,72.37
2023-01-30T12:03:34.062Z,72.10
2023-01-30T12:06:00.584Z,72.03
2023-01-30T12:08:42.193Z,71.59
2023-01-30T12:11:42.181Z,70.58
2023-01-30T12:14:40.037Z,69.84
2023-01-30T12:17:21.249Z,67.45
2023-01-30T12:20:22.095Z,67.09
2023-01-30T12:23:07.346Z,67.21
2023-01-30T12:25:58.667Z,66.56
2023-01-30T12:28:37.022Z,65.48
2023-01-30T12:31:17.391Z,63.94
2023-01-30T12:33:43.775Z,63.06
2023-01-30T12:36:35.780Z,67.95
2023-01-30T12:39:34.015Z,71.26
2023-01-30T12:42:40.423Z,72.59
2023-01-30T12:45:12.641Z,73.73
2023-01-30T12:48:40.708Z,74.00
2023-01-30T12:51:21.237Z,76.66
2023-01-30T12:54:21.773Z,79.76
2023-01-30T12:57:20.668Z,80.75
2023-01-30T13:00:15.074Z,84.00
2023-01-30T13:02:59.925Z,86.69
2023-01-30T13:05:54.313Z,87.44
2023-01-30T13:08:52.347Z,89.11
2023-01-30T13:11:28.903Z,89.98
2023-01-30T13:14:07.066Z,90.59
2023-01-30T13:16:46.544Z,92.23
2023-01-30T13:19:23.138Z,89.83
2023-01-30T13:21:57.720Z,88.88
2023-01-30T13:24:44.997Z,90.57
2023-01-30T13:27:19.809Z,91.43
2023-01-30T13:29:49.042Z,90.48
2023-01-30T13:32:29.747Z,89.18
2023-01-30T13:35:00.290Z,79.44
2023-01-30T13:37:27.542Z,73.02
2023-01-30T13:40:03.941Z,77.32
2023-01-30T13:43:09.962Z,81.22
2023-01-30T13:45:40.971Z,83.59
2023-01-30T13:48:27.123Z,85.41
2023-01-30T13:51:07.444Z,85.99
2023-01-30T13:53:47.021Z,86.17
2023-01-30T13:56:41.376Z,83.67
2023-01-30T13:59:25.153Z,80.43
2023-01-30T14:02:04.031Z,80.90
2023-01-30T14:04:30.499Z,81.10
2023-01-30T14:07:12.246Z,78.63
2023-01-30T14:09:45.301Z,72.54
2023-01-30T14:12:27.892Z,69.63
2023-01-30T14:14:59.756Z,71.03
2023-01-30T14:17:26.864Z,71.88
2023-01-30T14:20:05.268Z,74.97
2023-01-30T14:22:39.746Z,75.98
2023-01-30T14:25:27.756Z,75.93
2023-01-30T14:27:54.158Z,77.05
2023-01-30T14:31:07.675Z,78.45
2023-01-30T14:33:47.482Z,80.13
2023-01-30T14:36:20.259Z,80.42
2023-01-30T14:38:57.659Z,80.72
2023-01-30T14:41:24.023Z,80.74
2023-01-30T14:43:53.482Z,80.48
2023-01-30T14:46:23.300Z,80.03
2023-01-30T14:48:49.704Z,80.26
2023-01-30T14:52:00.856Z,79.95
2023-01-30T14:54:42.745Z,79.71
2023-01-30T14:57:32.583Z,79.81
2023-01-30T15:00:16.106Z,79.94
2023-01-30T15:02:51.311Z,80.07
2023-01-30T15:05:37.405Z,79.46
2023-01-30T15:08:16.006Z,80.21
2023-01-30T15:10:51.677Z,79.61
2023-01-30T15:13:55.674Z,79.27
2023-01-30T15:16:25.192Z,78.77
2023-01-30T15:19:22.029Z,78.05
2023-01-30T15:21:50.637Z,78.96
2023-01-30T15:24:58.564Z,78.96
2023-01-30T15:27:46.745Z,78.32
2023-01-30T15:30:45.399Z,78.37
2023-01-30T15:33:29.390Z,78.31
2023-01-30T15:35:56.876Z,78.04
2023-01-30T15:38:25.233Z,78.92
2023-01-30T15:40:54.125Z,77.95
2023-01-30T15:43:32.806Z,77.84
2023-01-30T15:46:23.133Z,78.80
2023-01-30T15:49:01.671Z,78.84
2023-01-30T15:51:30.960Z,78.53
2023-01-30T15:54:02.442Z,78.18
2023-01-30T15:56:32.116Z,77.49
2023-01-30T15:59:03.725Z,78.07
2023-01-30T16:01:32.850Z,78.84
2023-01-30T16:04:00.339Z,78.25
2023-01-30T16:06:35.281Z,78.07
2023-01-30T16:09:31.359Z,77.48
2023-01-30T16:16:30.832Z,78.10
2023-01-30T16:19:00.121Z,78.27
2023-01-30T16:22:35.115Z,78.91
2023-01-30T16:24:36.188Z,79.04
2023-01-30T16:27:27.560Z,78.26
2023-01-30T17:00:45.800Z,78.20
2023-01-30T17:21:41.532Z,79.19
2023-01-30T17:24:13.874Z,79.04
2023-01-30T17:26:40.920Z,79.62
2023-01-30T17:29:23.192Z,78.77
2023-01-30T17:31:56.966Z,78.45
2023-01-30T17:34:24.325Z,79.53
2023-01-30T17:36:52.846Z,79.53
2023-01-30T17:39:21.476Z,79.80
2023-01-30T17:41:48.444Z,79.53
2023-01-30T17:44:15.527Z,79.39
2023-01-30T17:46:45.597Z,78.60
2023-01-30T17:49:22.777Z,78.81
2023-01-30T17:51:50.317Z,79.06
2023-01-30T17:54:17.214Z,79.65
2023-01-30T17:56:51.591Z,79.82
2023-01-30T17:59:20.267Z,79.91
2023-01-30T18:01:49.647Z,80.16
2023-01-30T18:04:17.806Z,80.24
2023-01-30T18:06:46.338Z,80.00
2023-01-30T18:09:15.982Z,80.67
2023-01-30T18:11:42.541Z,79.94
2023-01-30T18:14:11.730Z,79.29
2023-01-30T18:16:38.654Z,80.21
2023-01-30T18:19:08.628Z,79.38
2023-01-30T18:21:38.228Z,80.20
2023-01-30T18:24:04.924Z,79.97
2023-01-30T18:26:31.433Z,79.91
2023-01-30T18:28:58.270Z,79.27
2023-01-30T18:31:26.724Z,78.85
2023-01-30T18:33:55.065Z,78.84
2023-01-30T18:36:22.091Z,79.19
2023-01-30T18:38:48.948Z,79.96
2023-01-30T18:41:21.428Z,79.99
2023-01-30T18:43:53.264Z,79.46
2023-01-30T18:46:19.902Z,80.45
2023-01-30T18:48:46.948Z,79.68
2023-01-30T18:51:20.791Z,80.83
2023-01-30T18:53:48.997Z,80.82
2023-01-30T18:56:20.879Z,81.16
2023-01-30T18:58:49.733Z,81.24
2023-01-30T19:01:18.630Z,80.94
2023-01-30T19:03:45.056Z,81.25
2023-01-30T19:06:14.050Z,82.39
2023-01-30T19:08:41.728Z,82.43
2023-01-30T19:11:32.348Z,82.35
2023-01-30T19:13:59.409Z,81.80
2023-01-30T19:16:27.536Z,82.64
2023-01-30T19:18:54.947Z,82.40
2023-01-30T19:21:23.464Z,82.97
2023-01-30T19:23:50.449Z,83.61
2023-01-30T19:26:18.801Z,83.98
2023-01-30T19:28:45.972Z,83.86
2023-01-30T19:31:14.905Z,83.57
2023-01-30T19:33:45.732Z,84.34
2023-01-30T19:36:15.688Z,84.43
2023-01-30T19:38:43.650Z,84.70
2023-01-30T19:41:13.728Z,84.46
2023-01-30T19:43:40.520Z,84.40
2023-01-30T19:46:07.982Z,82.98
2023-01-30T19:48:34.498Z,83.68
2023-01-30T19:51:15.102Z,84.26
2023-01-30T19:53:44.073Z,83.53
2023-01-30T19:56:12.376Z,83.64
2023-01-30T19:58:40.143Z,83.06
2023-01-30T20:01:10.642Z,83.60
2023-01-30T20:03:38.442Z,84.02
2023-01-30T20:06:16.809Z,84.19
2023-01-30T20:08:45.006Z,84.51
2023-01-30T20:11:13.787Z,84.55
2023-01-30T20:13:42.579Z,84.73
2023-01-30T20:16:11.908Z,84.71
2023-01-30T20:18:40.077Z,84.04
2023-01-30T20:21:15.382Z,84.31
2023-01-30T20:23:42.740Z,84.80
2023-01-30T20:26:12.397Z,84.44
2023-01-30T20:28:39.716Z,83.87
2023-01-30T20:31:12.498Z,83.88
2023-01-30T20:33:39.854Z,84.22
2023-01-30T20:36:11.675Z,84.18
2023-01-30T20:38:40.618Z,85.44
2023-01-30T20:41:19.479Z,84.98
2023-01-30T20:43:51.159Z,85.10
2023-01-30T20:46:17.652Z,84.71
2023-01-30T20:48:48.312Z,83.70
2023-01-30T20:51:24.274Z,83.64
2023-01-30T20:53:51.971Z,84.09
2023-01-30T20:56:19.624Z,84.03
2023-01-30T20:58:46.769Z,84.58
2023-01-30T21:01:17.669Z,84.61
2023-01-30T21:03:46.150Z,84.27
2023-01-30T21:06:12.776Z,83.95
2023-01-30T21:08:40.246Z,83.84
2023-01-30T21:11:11.222Z,83.63
2023-01-30T21:13:38.666Z,83.61
2023-01-30T21:16:11.081Z,83.36
2023-01-30T21:18:39.726Z,82.79
2023-01-30T21:21:08.262Z,82.36
2023-01-30T21:23:35.756Z,82.69
2023-01-30T21:26:08.119Z,82.74
2023-01-30T21:28:36.879Z,83.17
2023-01-30T21:31:09.388Z,84.38
2023-01-30T21:33:36.624Z,84.83
2023-01-30T21:36:03.771Z,84.31
2023-01-30T21:38:49.073Z,84.76
2023-01-30T21:41:39.500Z,85.34
2023-01-30T21:44:06.509Z,86.44
2023-01-30T21:46:38.151Z,86.52
2023-01-30T21:49:05.359Z,86.38
2023-01-30T21:51:32.182Z,86.85
2023-01-30T21:54:03.399Z,87.06
2023-01-30T21:56:31.296Z,86.91
2023-01-30T22:36:07.595Z,91.48
2023-01-30T22:38:34.451Z,91.51
2023-01-30T22:41:11.078Z,92.05
2023-01-30T22:43:37.541Z,92.27
2023-01-30T22:46:07.194Z,92.57
2023-01-30T22:48:35.990Z,93.20
2023-01-30T22:51:03.635Z,93.68
2023-01-30T22:53:39.387Z,93.55
2023-01-30T22:56:08.613Z,94.00
2023-01-30T22:58:35.706Z,95.24
2023-01-30T23:01:13.366Z,95.76
2023-01-30T23:03:41.474Z,96.59
2023-01-30T23:06:09.949Z,96.00
2023-01-30T23:08:39.118Z,95.49
2023-01-30T23:11:09.400Z,95.22
2023-01-30T23:13:36.662Z,95.62
2023-01-30T23:16:05.384Z,96.13
2023-01-30T23:18:51.464Z,95.04
2023-01-30T23:21:18.340Z,95.39
2023-01-30T23:23:45.893Z,94.73
2023-01-30T23:26:13.207Z,94.71
2023-01-30T23:28:40.329Z,94.53
2023-01-30T23:31:19.708Z,94.49
2023-01-30T23:33:46.999Z,94.89
2023-01-30T23:36:14.864Z,93.88
2023-01-30T23:38:41.347Z,93.34
2023-01-30T23:41:16.324Z,93.61
2023-01-30T23:43:44.270Z,93.56
2023-01-30T23:46:15.217Z,92.82
2023-01-30T23:48:43.025Z,92.23
2023-01-30T23:51:09.543Z,91.80
2023-01-30T23:53:36.736Z,92.16
2023-01-30T23:56:04.665Z,91.75
2023-01-30T23:58:31.173Z,91.71
